Time;durP1;ratioP1;P1;durP2;ratioP2;P2;SDS_P1;SDS_P2;PMS_P1;PMS_P2;Temp;Humidity;BMP_temperature;BMP_pressure;BME280_temperature;BME280_humidity;BME280_pressure;Samples;Min_cycle;Max_cycle;Signal;HPM_P1;HPM_P2
2021/05/10 00:00:55;;;;;;;3.72;1.80;;;18.30;1.00;;;;;;5038901;28;20521;-87
2021/05/10 00:03:42;;;;;;;2.38;1.50;;;18.10;1.00;;;;;;5042355;28;20049;-87
2021/05/10 00:06:29;;;;;;;6.38;2.35;;;18.00;1.00;;;;;;5045285;28;20057;-89
2021/05/10 00:09:17;;;;;;;3.75;1.67;;;17.80;1.00;;;;;;5049483;28;20041;-87
2021/05/10 00:12:05;;;;;;;2.13;1.40;;;17.90;1.00;;;;;;5048022;28;20049;-86
2021/05/10 00:14:52;;;;;;;2.83;1.67;;;18.20;1.00;;;;;;5049204;28;20548;-86
2021/05/10 00:17:40;;;;;;;3.50;1.70;;;18.30;1.00;;;;;;5045596;28;20124;-88
2021/05/10 00:20:27;;;;;;;3.28;2.28;;;18.10;1.00;;;;;;5045818;28;20068;-89
2021/05/10 00:23:16;;;;;;;2.05;1.80;;;17.80;1.00;;;;;;5037759;28;20498;-88
2021/05/10 00:26:04;;;;;;;2.60;2.08;;;17.90;1.00;;;;;;5047719;28;20049;-88
2021/05/10 00:28:51;;;;;;;4.22;1.88;;;17.70;1.00;;;;;;5046347;28;20083;-88
2021/05/10 00:31:38;;;;;;;2.50;1.90;;;17.60;1.00;;;;;;5047379;28;20048;-88
2021/05/10 00:34:26;;;;;;;3.28;2.10;;;17.60;1.00;;;;;;5043180;28;20053;-88
2021/05/10 00:37:14;;;;;;;5.10;1.92;;;17.70;1.00;;;;;;5045376;28;20037;-87
2021/05/10 00:40:01;;;;;;;4.40;2.15;;;17.70;1.00;;;;;;5036944;28;20061;-86
2021/05/10 00:42:49;;;;;;;3.55;1.88;;;17.70;1.00;;;;;;5035531;28;20046;-86
2021/05/10 00:45:36;;;;;;;3.67;1.70;;;17.70;1.00;;;;;;5041616;28;20045;-86
2021/05/10 00:48:23;;;;;;;2.20;1.92;;;17.70;1.00;;;;;;5046324;28;20120;-86
2021/05/10 00:51:11;;;;;;;2.53;1.80;;;17.70;1.00;;;;;;5044905;28;20113;-87
2021/05/10 00:53:58;;;;;;;4.03;1.95;;;17.60;1.00;;;;;;5036202;28;20944;-88
2021/05/10 00:56:46;;;;;;;4.35;1.90;;;17.60;1.00;;;;;;5041318;28;20056;-87
2021/05/10 00:59:34;;;;;;;3.22;1.80;;;17.50;1.00;;;;;;5046519;28;20041;-86
2021/05/10 01:02:22;;;;;;;2.03;1.73;;;17.40;1.00;;;;;;5041882;28;20037;-86
2021/05/10 01:05:10;;;;;;;3.15;1.98;;;17.30;1.00;;;;;;5040526;28;20049;-87
2021/05/10 01:07:58;;;;;;;2.25;1.65;;;17.30;1.00;;;;;;5047139;28;20051;-87
2021/05/10 01:10:45;;;;;;;3.60;2.10;;;17.20;1.00;;;;;;5046463;28;20091;-86
2021/05/10 01:13:33;;;;;;;4.57;1.98;;;17.00;1.00;;;;;;5044327;28;20051;-86
2021/05/10 01:16:20;;;;;;;3.50;2.50;;;16.80;1.00;;;;;;5063350;28;20072;-88
2021/05/10 01:19:09;;;;;;;5.30;2.13;;;16.90;1.00;;;;;;5063656;28;20045;-88
2021/05/10 01:21:59;;;;;;;3.30;2.30;;;16.90;1.00;;;;;;5049619;28;20060;-85
2021/05/10 01:24:47;;;;;;;2.50;1.98;;;16.70;1.00;;;;;;5046179;28;20044;-85
2021/05/10 01:27:35;;;;;;;4.97;2.55;;;16.50;1.00;;;;;;5050264;28;20106;-85
2021/05/10 01:30:24;;;;;;;5.00;2.40;;;16.50;1.00;;;;;;5055853;28;20041;-84
2021/05/10 01:33:11;;;;;;;4.22;2.55;;;16.60;1.00;;;;;;5043579;28;20520;-84
2021/05/10 01:36:02;;;;;;;4.85;2.38;;;16.60;1.00;;;;;;5050573;28;20503;-84
2021/05/10 01:38:49;;;;;;;3.65;2.40;;;16.60;1.00;;;;;;5044397;28;20179;-85
2021/05/10 01:41:37;;;;;;;4.43;2.55;;;16.50;1.00;;;;;;5033188;28;20044;-85
2021/05/10 01:44:24;;;;;;;5.40;2.35;;;16.40;1.00;;;;;;5045804;28;20059;-86
2021/05/10 01:47:12;;;;;;;4.70;2.70;;;16.50;1.00;;;;;;5053127;28;20093;-85
2021/05/10 01:50:00;;;;;;;3.92;2.00;;;16.60;1.00;;;;;;5062222;28;20052;-85
2021/05/10 01:52:48;;;;;;;4.75;2.53;;;16.60;1.00;;;;;;5044424;28;20048;-85
2021/05/10 01:55:36;;;;;;;3.63;2.20;;;16.70;1.00;;;;;;5044474;28;20044;-83
2021/05/10 01:58:24;;;;;;;4.82;2.75;;;16.60;1.00;;;;;;5052815;28;20138;-84
2021/05/10 02:01:11;;;;;;;4.65;2.58;;;16.50;1.00;;;;;;5048629;28;20045;-84
2021/05/10 02:04:00;;;;;;;3.40;2.30;;;16.40;1.00;;;;;;5043345;28;20498;-85
2021/05/10 02:06:47;;;;;;;7.82;2.55;;;16.40;1.00;;;;;;5051989;28;20040;-84
2021/05/10 02:09:34;;;;;;;4.32;2.13;;;16.30;1.00;;;;;;5046932;28;20055;-85
2021/05/10 02:12:21;;;;;;;3.72;2.17;;;16.10;1.00;;;;;;5046295;28;20053;-84
2021/05/10 02:15:11;;;;;;;3.85;1.80;;;16.10;1.00;;;;;;5043777;28;20049;-85
2021/05/10 02:18:00;;;;;;;3.20;1.83;;;16.00;1.00;;;;;;5050347;28;20053;-86
2021/05/10 02:20:48;;;;;;;3.22;2.00;;;16.00;1.00;;;;;;4962601;28;20041;-86
2021/05/10 02:23:37;;;;;;;4.97;2.00;;;16.10;1.00;;;;;;5055347;28;20145;-85
2021/05/10 02:26:24;;;;;;;3.58;2.00;;;16.10;1.00;;;;;;5062228;28;20037;-86
2021/05/10 02:29:11;;;;;;;2.00;1.80;;;16.00;1.00;;;;;;5065342;28;20032;-86
2021/05/10 02:31:59;;;;;;;3.45;2.00;;;16.10;1.00;;;;;;5058032;28;20045;-85
2021/05/10 02:34:46;;;;;;;2.20;1.70;;;16.10;1.00;;;;;;5061705;28;20063;-85
2021/05/10 02:37:34;;;;;;;4.38;1.67;;;16.00;1.00;;;;;;5067186;28;20610;-85
2021/05/10 02:40:21;;;;;;;2.38;2.00;;;16.00;1.00;;;;;;5059860;28;20040;-85
2021/05/10 02:43:09;;;;;;;2.63;1.80;;;16.00;1.00;;;;;;5060684;28;20127;-85
2021/05/10 02:45:56;;;;;;;5.65;1.67;;;15.90;1.00;;;;;;5061922;28;20094;-84
2021/05/10 02:48:44;;;;;;;2.75;1.88;;;16.00;1.00;;;;;;5064700;28;20056;-84
2021/05/10 02:51:31;;;;;;;3.05;1.55;;;15.90;1.00;;;;;;5059477;28;20508;-86
2021/05/10 02:54:18;;;;;;;1.90;1.70;;;16.00;1.00;;;;;;5056823;28;20049;-86
2021/05/10 02:57:06;;;;;;;2.47;1.70;;;16.00;1.00;;;;;;5064278;28;20145;-84
2021/05/10 02:59:53;;;;;;;3.58;2.17;;;16.10;1.00;;;;;;5060561;28;20047;-85
2021/05/10 03:02:40;;;;;;;3.58;1.77;;;16.00;1.00;;;;;;5057575;28;20206;-85
2021/05/10 03:05:29;;;;;;;6.63;2.17;;;15.90;1.00;;;;;;5065718;28;20060;-85
2021/05/10 03:08:16;;;;;;;4.10;2.20;;;15.90;1.00;;;;;;5063359;28;20190;-85
2021/05/10 03:11:03;;;;;;;7.20;2.55;;;15.80;1.00;;;;;;5064296;28;20051;-85
2021/05/10 03:13:50;;;;;;;4.65;2.22;;;15.70;1.00;;;;;;5055829;28;20052;-85
2021/05/10 03:16:37;;;;;;;4.88;2.63;;;15.70;1.00;;;;;;5061415;28;20417;-85
2021/05/10 03:19:25;;;;;;;4.93;2.38;;;15.70;1.00;;;;;;5055955;28;20409;-86
2021/05/10 03:22:13;;;;;;;3.88;2.17;;;15.70;1.00;;;;;;5063059;28;20051;-85
2021/05/10 03:25:00;;;;;;;4.55;2.58;;;15.80;1.00;;;;;;5066130;28;20844;-85
2021/05/10 03:27:48;;;;;;;4.65;2.75;;;15.60;1.00;;;;;;5062288;28;20122;-86
2021/05/10 03:30:36;;;;;;;4.85;2.70;;;15.60;1.00;;;;;;5065748;28;20409;-87
2021/05/10 03:33:23;;;;;;;8.20;3.20;;;15.50;1.00;;;;;;5056408;28;20041;-86
2021/05/10 03:36:10;;;;;;;4.88;3.20;;;15.40;1.00;;;;;;5064040;28;20044;-83
2021/05/10 03:38:59;;;;;;;5.38;3.33;;;15.60;1.00;;;;;;5061131;28;20171;-85
2021/05/10 03:41:46;;;;;;;7.45;3.03;;;15.50;1.00;;;;;;5058735;28;20047;-85
2021/05/10 03:44:33;;;;;;;5.25;2.95;;;15.60;1.00;;;;;;5059998;28;20045;-85
2021/05/10 03:47:21;;;;;;;7.97;3.90;;;15.50;1.00;;;;;;5060946;28;20051;-86
2021/05/10 03:50:10;;;;;;;5.80;3.35;;;15.60;1.00;;;;;;5065477;28;20087;-84
2021/05/10 03:52:57;;;;;;;6.90;3.58;;;15.90;1.00;;;;;;5062411;28;20052;-85
2021/05/10 03:55:45;;;;;;;9.40;4.07;;;16.00;1.00;;;;;;5064911;28;20052;-85
2021/05/10 03:58:33;;;;;;;9.55;3.45;;;16.10;1.00;;;;;;5062121;28;20036;-85
2021/05/10 04:01:20;;;;;;;9.68;4.07;;;16.10;1.00;;;;;;5065043;28;20181;-85
2021/05/10 04:04:15;;;;;;;9.95;4.07;;;16.10;1.00;;;;;;5057788;28;20056;-85
2021/05/10 04:13:36;;;;;;;4.68;3.42;;;16.10;1.00;;;;;;5034173;28;20040;-85
2021/05/10 04:16:24;;;;;;;7.13;3.75;;;16.10;1.00;;;;;;5061897;28;20110;-84
2021/05/10 04:19:15;;;;;;;6.22;3.10;;;16.20;1.00;;;;;;5062683;28;20685;-85
2021/05/10 04:22:02;;;;;;;7.32;3.72;;;16.20;1.00;;;;;;5064397;28;20186;-85
2021/05/10 04:24:49;;;;;;;6.75;3.13;;;16.20;1.00;;;;;;5061171;28;20585;-86
2021/05/10 04:27:36;;;;;;;5.53;3.13;;;16.30;1.00;;;;;;5059741;28;20060;-86
2021/05/10 04:30:25;;;;;;;6.47;3.40;;;16.40;1.00;;;;;;5065158;28;20111;-85
2021/05/10 04:33:13;;;;;;;4.03;2.38;;;16.60;1.00;;;;;;5056200;28;20051;-84
2021/05/10 04:36:01;;;;;;;4.53;2.63;;;16.70;1.00;;;;;;5061726;28;20064;-85
2021/05/10 04:38:48;;;;;;;8.95;2.35;;;16.70;1.00;;;;;;5059031;28;20520;-85
2021/05/10 04:41:35;;;;;;;4.13;2.72;;;16.70;1.00;;;;;;5058420;28;20171;-85
2021/05/10 04:44:22;;;;;;;4.03;2.30;;;16.70;1.00;;;;;;5060681;28;20520;-85
2021/05/10 04:47:10;;;;;;;3.35;2.17;;;16.70;1.00;;;;;;5063226;28;20053;-85
2021/05/10 04:49:57;;;;;;;8.48;2.90;;;16.60;1.00;;;;;;5061361;28;20051;-86
2021/05/10 04:52:45;;;;;;;6.57;2.78;;;16.70;1.00;;;;;;5058432;28;20101;-85
2021/05/10 04:55:32;;;;;;;10.65;2.90;;;16.80;1.00;;;;;;5068087;28;20037;-85
2021/05/10 04:58:19;;;;;;;2.50;2.25;;;16.70;1.00;;;;;;5067629;28;20076;-85
2021/05/10 05:01:06;;;;;;;4.75;2.58;;;16.70;1.00;;;;;;5062701;28;20141;-85
2021/05/10 05:03:58;;;;;;;9.90;3.40;;;16.90;1.00;;;;;;5062897;28;20389;-85
2021/05/10 05:06:45;;;;;;;4.70;2.78;;;16.70;1.00;;;;;;5067180;28;20047;-84
2021/05/10 05:09:32;;;;;;;6.45;3.70;;;16.50;1.00;;;;;;5064386;28;20045;-84
2021/05/10 05:12:19;;;;;;;5.45;3.03;;;16.10;1.00;;;;;;5063367;28;20120;-86
2021/05/10 05:15:08;;;;;;;7.60;3.08;;;16.00;1.00;;;;;;5070918;28;20052;-87
2021/05/10 05:17:55;;;;;;;4.50;2.78;;;16.10;1.00;;;;;;5065447;28;20128;-86
2021/05/10 05:20:44;;;;;;;10.02;3.20;;;16.10;1.00;;;;;;5070338;28;20076;-87
2021/05/10 05:23:34;;;;;;;9.93;3.45;;;16.30;1.00;;;;;;5084560;28;20067;-86
2021/05/10 05:26:21;;;;;;;6.32;4.32;;;16.10;1.00;;;;;;5088398;28;20088;-87
2021/05/10 05:29:08;;;;;;;5.93;2.92;;;16.00;1.00;;;;;;5084957;28;20059;-85
2021/05/10 05:31:57;;;;;;;4.13;2.60;;;15.90;1.00;;;;;;5082137;28;20044;-85
2021/05/10 05:34:45;;;;;;;5.93;2.88;;;16.00;1.00;;;;;;5087851;28;20047;-85
2021/05/10 05:37:33;;;;;;;6.90;3.50;;;16.00;1.00;;;;;;5089130;28;20031;-87
2021/05/10 05:40:20;;;;;;;4.05;2.72;;;16.00;1.00;;;;;;5085763;28;20049;-85
2021/05/10 05:43:09;;;;;;;7.85;3.13;;;16.10;1.00;;;;;;5075083;28;20051;-85
2021/05/10 05:45:56;;;;;;;7.07;3.60;;;15.90;1.00;;;;;;5076088;28;20076;-85
2021/05/10 05:48:44;;;;;;;13.65;3.80;;;16.00;1.00;;;;;;5073122;28;20096;-85
2021/05/10 05:51:33;;;;;;;11.70;3.03;;;16.10;1.00;;;;;;5075549;28;20045;-86
2021/05/10 05:54:21;;;;;;;10.73;2.80;;;16.40;1.00;;;;;;5076074;28;20044;-84
2021/05/10 05:57:09;;;;;;;17.00;3.88;;;16.70;1.00;;;;;;5074164;28;20045;-84
2021/05/10 05:59:57;;;;;;;5.53;2.88;;;16.80;1.00;;;;;;5068641;28;20509;-86
2021/05/10 06:02:45;;;;;;;7.40;2.53;;;16.80;1.00;;;;;;5075957;28;20078;-85
2021/05/10 06:05:32;;;;;;;9.35;3.28;;;16.90;1.00;;;;;;5075553;28;20052;-85
2021/05/10 06:08:19;;;;;;;5.55;2.67;;;17.20;1.00;;;;;;5073838;28;20137;-86
2021/05/10 06:11:09;;;;;;;10.77;3.50;;;17.30;1.00;;;;;;5071787;28;20106;-87
2021/05/10 06:13:56;;;;;;;10.05;2.25;;;17.40;1.00;;;;;;5080683;28;20507;-84
2021/05/10 06:16:47;;;;;;;7.60;2.60;;;17.50;1.00;;;;;;5081831;28;20051;-86
2021/05/10 06:19:37;;;;;;;4.00;2.17;;;17.30;1.00;;;;;;5082733;28;20045;-86
2021/05/10 06:22:24;;;;;;;6.57;2.42;;;17.40;1.00;;;;;;5074821;28;20592;-85
2021/05/10 06:25:15;;;;;;;6.10;3.25;;;17.50;1.00;;;;;;5072581;28;20159;-86
2021/05/10 06:28:04;;;;;;;7.43;2.58;;;17.70;1.00;;;;;;5071804;28;20041;-85
2021/05/10 06:30:51;;;;;;;5.05;2.42;;;17.90;1.00;;;;;;5077648;28;20071;-86
2021/05/10 06:33:38;;;;;;;5.07;2.67;;;17.80;1.00;;;;;;5067980;28;20044;-86
2021/05/10 06:36:26;;;;;;;7.45;2.78;;;18.30;1.00;;;;;;5076102;28;20079;-85
2021/05/10 06:39:13;;;;;;;6.63;2.58;;;18.50;1.00;;;;;;5071349;28;20048;-85
2021/05/10 06:42:00;;;;;;;6.72;2.20;;;18.80;1.00;;;;;;5069044;28;20055;-86
2021/05/10 06:44:51;;;;;;;6.82;3.10;;;18.90;1.00;;;;;;5079546;28;20104;-86
2021/05/10 06:47:41;;;;;;;6.43;2.53;;;19.10;1.00;;;;;;5072553;28;20045;-87
2021/05/10 06:50:30;;;;;;;8.15;2.40;;;19.10;1.00;;;;;;5064111;28;20123;-86
2021/05/10 06:53:17;;;;;;;6.10;2.22;;;19.30;1.00;;;;;;5062111;28;20412;-86
2021/05/10 06:56:05;;;;;;;4.05;2.20;;;19.20;1.00;;;;;;5070004;28;20036;-86
2021/05/10 06:58:52;;;;;;;12.63;2.75;;;19.50;1.00;;;;;;5069863;28;20436;-85
2021/05/10 07:01:40;;;;;;;3.70;2.53;;;19.90;1.00;;;;;;5067340;28;20036;-86
2021/05/10 07:04:27;;;;;;;4.30;2.13;;;20.00;1.00;;;;;;5063603;28;20047;-85
2021/05/10 07:07:14;;;;;;;5.32;2.15;;;20.10;1.00;;;;;;5063222;28;20045;-85
2021/05/10 07:10:02;;;;;;;5.35;2.22;;;20.30;1.00;;;;;;5067537;28;20083;-87
2021/05/10 07:12:49;;;;;;;5.43;2.17;;;20.40;1.00;;;;;;5065919;28;20052;-87
2021/05/10 07:15:37;;;;;;;7.03;1.92;;;20.20;1.00;;;;;;5067069;28;20515;-86
2021/05/10 07:18:25;;;;;;;6.82;2.13;;;20.30;1.00;;;;;;5070400;28;20041;-85
2021/05/10 07:21:13;;;;;;;4.28;2.10;;;20.30;1.00;;;;;;5071813;28;20068;-85
2021/05/10 07:24:00;;;;;;;4.22;2.17;;;20.50;1.00;;;;;;5062470;28;20048;-85
2021/05/10 07:26:47;;;;;;;6.38;2.42;;;20.70;1.00;;;;;;5066998;28;20547;-86
2021/05/10 07:29:35;;;;;;;6.55;1.73;;;21.10;1.00;;;;;;5064140;28;20049;-86
2021/05/10 07:32:22;;;;;;;5.57;2.30;;;21.00;1.00;;;;;;5062942;28;20127;-86
2021/05/10 07:35:11;;;;;;;4.50;2.17;;;21.20;1.00;;;;;;5063390;28;20685;-86
2021/05/10 07:37:59;;;;;;;5.25;2.13;;;21.10;1.00;;;;;;5062993;28;20088;-87
2021/05/10 07:40:46;;;;;;;3.88;1.80;;;21.00;1.00;;;;;;5065459;28;20040;-86
2021/05/10 07:43:33;;;;;;;4.07;1.73;;;20.90;1.00;;;;;;5061284;28;20136;-86
2021/05/10 07:46:20;;;;;;;6.00;2.13;;;21.00;1.00;;;;;;5058097;28;20071;-86
2021/05/10 07:49:08;;;;;;;8.20;2.30;;;21.10;1.00;;;;;;5072704;28;20040;-84
2021/05/10 07:51:56;;;;;;;4.07;1.88;;;21.50;1.00;;;;;;5064810;28;20667;-85
2021/05/10 07:54:43;;;;;;;5.30;1.80;;;21.40;1.00;;;;;;5060672;28;20049;-86
2021/05/10 07:57:31;;;;;;;3.53;2.03;;;21.40;1.00;;;;;;5065823;28;20086;-85
2021/05/10 08:00:22;;;;;;;9.85;3.85;;;21.00;1.00;;;;;;5066093;28;20491;-85
2021/05/10 08:03:12;;;;;;;5.13;2.20;;;21.80;1.00;;;;;;5063957;28;20076;-85
2021/05/10 08:06:01;;;;;;;8.32;1.60;;;21.80;1.00;;;;;;5065740;28;20564;-85
2021/05/10 08:08:50;;;;;;;3.65;1.77;;;21.10;1.00;;;;;;5064067;28;20041;-85
2021/05/10 08:11:39;;;;;;;5.25;1.77;;;21.30;1.00;;;;;;5067088;28;20048;-86
2021/05/10 08:14:26;;;;;;;2.83;1.60;;;21.40;1.00;;;;;;5063200;28;20060;-85
2021/05/10 08:17:13;;;;;;;6.07;2.20;;;21.20;1.00;;;;;;5063785;28;20045;-86
2021/05/10 08:20:01;;;;;;;6.68;4.18;;;21.60;1.00;;;;;;5065504;28;20048;-86
2021/05/10 08:22:48;;;;;;;5.45;2.38;;;21.20;1.00;;;;;;5064014;28;20564;-86
2021/05/10 08:25:36;;;;;;;4.10;1.95;;;21.40;1.00;;;;;;5058714;28;20090;-86
2021/05/10 08:28:24;;;;;;;3.20;1.90;;;21.10;1.00;;;;;;5056673;28;20045;-85
2021/05/10 08:31:11;;;;;;;3.97;1.98;;;21.00;1.00;;;;;;5066126;28;20036;-84
2021/05/10 08:33:58;;;;;;;5.13;1.88;;;21.20;1.00;;;;;;5064092;28;20136;-85
2021/05/10 08:36:46;;;;;;;3.85;1.80;;;21.20;1.00;;;;;;5068700;28;20155;-84
2021/05/10 08:39:33;;;;;;;3.42;1.80;;;20.70;1.00;;;;;;5054080;28;20426;-86
2021/05/10 08:42:21;;;;;;;3.90;1.92;;;20.50;1.00;;;;;;5059770;28;20041;-86
2021/05/10 08:45:09;;;;;;;4.20;2.40;;;20.60;1.00;;;;;;5062904;28;20028;-85
2021/05/10 08:48:00;;;;;;;5.72;1.90;;;20.50;1.00;;;;;;5062204;28;20682;-85
2021/05/10 08:50:48;;;;;;;3.58;2.20;;;20.30;1.00;;;;;;5061759;28;20166;-85
2021/05/10 08:53:37;;;;;;;6.65;2.20;;;20.20;1.00;;;;;;5056728;28;20041;-84
2021/05/10 08:56:24;;;;;;;5.22;2.13;;;20.00;1.00;;;;;;5055421;28;20099;-85
2021/05/10 08:59:13;;;;;;;7.10;2.20;;;20.30;1.00;;;;;;5061813;28;20159;-84
2021/05/10 09:02:02;;;;;;;6.78;2.20;;;20.00;1.00;;;;;;5053389;28;20048;-85
2021/05/10 09:04:50;;;;;;;4.10;1.77;;;20.50;1.00;;;;;;5054051;28;20053;-84
2021/05/10 09:07:37;;;;;;;4.00;1.73;;;20.80;1.00;;;;;;5059407;28;20128;-86
2021/05/10 09:10:24;;;;;;;8.05;1.77;;;20.60;1.00;;;;;;5060166;28;20044;-84
2021/05/10 09:13:12;;;;;;;7.03;3.25;;;20.30;1.00;;;;;;5056259;28;20052;-84
2021/05/10 09:16:02;;;;;;;4.60;2.20;;;20.60;1.00;;;;;;5061385;28;20591;-85
2021/05/10 09:18:54;;;;;;;6.47;2.53;;;20.80;1.00;;;;;;5066706;28;20519;-84
2021/05/10 09:21:55;;;;;;;7.05;1.67;;;20.80;1.00;;;;;;5061887;28;20171;-85
2021/05/10 09:24:48;;;;;;;6.50;1.50;;;20.10;1.00;;;;;;5061770;28;20589;-85
2021/05/10 09:27:35;;;;;;;5.13;1.40;;;19.90;1.00;;;;;;5057496;28;20068;-86
2021/05/10 09:30:23;;;;;;;2.78;1.38;;;20.50;1.00;;;;;;5064001;28;20049;-86
2021/05/10 09:33:22;;;;;;;2.45;1.20;;;20.40;1.00;;;;;;5055716;28;20055;-86
2021/05/10 09:36:09;;;;;;;4.28;1.23;;;20.00;1.00;;;;;;5058041;28;20176;-86
2021/05/10 09:38:57;;;;;;;4.28;1.30;;;20.10;1.00;;;;;;5066078;28;20072;-85
2021/05/10 09:41:58;;;;;;;1.85;0.90;;;20.80;1.00;;;;;;5069260;28;20041;-86
2021/05/10 09:44:45;;;;;;;3.28;1.40;;;20.90;1.00;;;;;;5067020;28;20047;-85
2021/05/10 09:47:33;;;;;;;3.80;0.90;;;20.90;1.00;;;;;;5060707;28;20045;-85
2021/05/10 09:50:33;;;;;;;3.53;0.70;;;20.90;1.00;;;;;;5068506;28;20051;-85
2021/05/10 09:53:32;;;;;;;1.48;0.85;;;20.90;1.00;;;;;;5066046;28;20040;-84
2021/05/10 09:56:29;;;;;;;2.53;0.80;;;21.60;1.00;;;;;;5076365;28;20061;-85
2021/05/10 09:59:18;;;;;;;1.20;0.70;;;21.10;1.00;;;;;;5075343;28;20045;-85
2021/05/10 10:02:11;;;;;;;2.40;0.80;;;20.70;1.00;;;;;;5075097;28;20098;-86
2021/05/10 10:04:59;;;;;;;4.32;0.73;;;21.10;1.00;;;;;;5068222;28;20640;-86
2021/05/10 10:07:49;;;;;;;1.65;0.68;;;20.60;1.00;;;;;;5068799;28;20048;-85
2021/05/10 10:10:36;;;;;;;2.10;0.80;;;20.60;1.00;;;;;;5067057;28;20374;-84
2021/05/10 10:13:24;;;;;;;1.08;0.70;;;20.30;1.00;;;;;;5059954;28;20518;-85
2021/05/10 10:16:12;;;;;;;1.58;0.60;;;21.10;1.00;;;;;;5069248;28;20047;-85
2021/05/10 10:19:01;;;;;;;1.90;0.95;;;20.60;1.00;;;;;;5067549;28;20045;-84
2021/05/10 10:21:48;;;;;;;1.92;0.70;;;20.30;1.00;;;;;;5066441;28;20068;-84
2021/05/10 10:24:36;;;;;;;2.80;0.93;;;20.20;1.00;;;;;;5067135;28;20063;-85
2021/05/10 10:27:46;;;;;;;2.60;0.75;;;20.40;1.00;;;;;;5071964;28;20036;-86
2021/05/10 10:30:41;;;;;;;1.90;0.90;;;20.00;1.00;;;;;;5072081;28;20072;-85
2021/05/10 10:33:36;;;;;;;1.10;0.70;;;20.10;1.00;;;;;;5065760;28;20128;-86
2021/05/10 10:36:25;;;;;;;;;;;20.20;1.00;;;;;;5075517;28;20045;-86
2021/05/10 10:39:19;;;;;;;2.90;0.90;;;20.00;1.00;;;;;;5074955;28;20050;-85
2021/05/10 10:42:09;;;;;;;1.15;0.63;;;20.00;1.00;;;;;;5071641;28;20110;-86
2021/05/10 10:44:57;;;;;;;2.55;1.00;;;19.90;1.00;;;;;;5062989;28;20054;-85
2021/05/10 10:47:47;;;;;;;1.20;0.80;;;20.40;1.00;;;;;;5082518;28;20052;-86
2021/05/10 10:51:02;;;;;;;0.93;0.65;;;20.10;1.00;;;;;;5084672;28;20063;-85
2021/05/10 10:54:20;;;;;;;2.90;0.82;;;20.10;1.00;;;;;;5073297;28;20045;-87
2021/05/10 10:57:08;;;;;;;2.85;0.82;;;20.60;1.00;;;;;;5073875;28;20047;-86
2021/05/10 10:59:55;;;;;;;0.98;0.52;;;20.20;1.00;;;;;;5072242;28;20108;-87
2021/05/10 11:02:46;;;;;;;0.70;0.57;;;20.20;1.00;;;;;;5070165;28;20052;-87
2021/05/10 11:05:46;;;;;;;2.90;0.98;;;20.00;1.00;;;;;;5070808;28;20186;-87
2021/05/10 11:08:53;;;;;;;1.90;0.82;;;20.70;1.00;;;;;;5067982;28;20063;-87
2021/05/10 11:11:41;;;;;;;0.90;0.50;;;20.50;1.00;;;;;;5064581;28;20131;-85
2021/05/10 11:14:50;;;;;;;10.68;0.60;;;20.40;1.00;;;;;;5080269;28;20533;-86
2021/05/10 11:17:52;;;;;;;2.60;0.82;;;20.50;1.00;;;;;;5070884;28;20045;-85
2021/05/10 11:20:46;;;;;;;3.47;0.85;;;20.20;1.00;;;;;;5070328;28;20669;-87
2021/05/10 11:23:36;;;;;;;1.92;0.80;;;19.70;1.00;;;;;;5070230;28;20033;-86
2021/05/10 11:27:04;;;;;;;2.25;0.70;;;20.00;1.00;;;;;;5065487;28;20045;-87
2021/05/10 11:29:58;;;;;;;3.17;0.50;;;19.80;1.00;;;;;;5072947;28;20367;-86
2021/05/10 11:32:54;;;;;;;1.30;0.60;;;20.00;1.00;;;;;;5070396;28;20055;-87
2021/05/10 11:35:51;;;;;;;3.63;0.68;;;20.00;1.00;;;;;;5069481;28;22584;-87
2021/05/10 11:38:38;;;;;;;2.33;0.73;;;19.50;1.00;;;;;;5074495;28;20102;-86
2021/05/10 11:41:28;;;;;;;3.70;0.70;;;19.50;1.00;;;;;;5078188;28;20104;-88
2021/05/10 11:44:23;;;;;;;4.72;0.90;;;19.60;1.00;;;;;;5075517;28;20059;-88
2021/05/10 11:47:18;;;;;;;1.50;0.55;;;19.50;1.00;;;;;;5070689;28;20040;-86
2021/05/10 11:50:19;;;;;;;3.30;0.50;;;19.60;1.00;;;;;;5066420;28;20123;-87
2021/05/10 11:53:07;;;;;;;0.68;0.30;;;19.60;1.00;;;;;;5062191;28;20623;-86
2021/05/10 11:56:02;;;;;;;1.55;0.50;;;19.60;1.00;;;;;;5071406;28;20056;-85
2021/05/10 11:58:59;;;;;;;0.52;0.50;;;19.50;1.00;;;;;;5064591;28;20098;-85
2021/05/10 12:01:46;;;;;;;1.25;0.35;;;19.20;1.00;;;;;;5060971;28;20040;-86
2021/05/10 12:04:35;;;;;;;1.75;0.35;;;19.50;1.00;;;;;;5063729;28;20044;-86
2021/05/10 12:07:24;;;;;;;0.88;0.30;;;19.10;1.00;;;;;;5064565;28;20044;-85
2021/05/10 12:10:12;;;;;;;1.35;0.20;;;19.20;1.00;;;;;;5073677;28;20048;-86
2021/05/10 12:12:59;;;;;;;2.88;0.50;;;19.20;1.00;;;;;;5068412;28;20045;-87
2021/05/10 12:16:21;;;;;;;0.32;0.30;;;19.30;1.00;;;;;;5081459;28;20057;-87
2021/05/10 12:19:52;;;;;;;3.30;0.38;;;19.00;1.00;;;;;;5087677;28;20029;-89
2021/05/10 12:26:38;;;;;;;1.05;0.30;;;18.90;1.00;;;;;;5086351;28;20032;-89
2021/05/10 12:29:58;;;;;;;1.23;0.28;;;19.30;1.00;;;;;;5084154;28;20029;-90
2021/05/10 12:40:38;;;;;;;1.38;0.20;;;19.20;1.00;;;;;;5080407;28;20041;-88
2021/05/10 12:43:34;;;;;;;0.50;0.20;;;19.40;1.00;;;;;;5083479;28;20032;-89
2021/05/10 12:50:36;;;;;;;0.40;0.20;;;19.50;1.00;;;;;;5269653;22;20053;-66
2021/05/10 12:53:31;;;;;;;0.82;0.30;;;19.70;1.00;;;;;;5009806;28;20184;-66
2021/05/10 12:56:20;;;;;;;2.97;1.55;;;19.30;1.00;;;;;;5016632;28;20516;-66
2021/05/10 12:59:08;;;;;;;0.30;0.20;;;19.40;1.00;;;;;;5018022;28;20452;-66
2021/05/10 13:01:55;;;;;;;1.10;0.20;;;19.30;1.00;;;;;;5014895;28;20088;-66
2021/05/10 13:04:45;;;;;;;1.38;0.65;;;19.30;1.00;;;;;;5018073;28;20049;-65
2021/05/10 13:07:46;;;;;;;4.53;0.50;;;19.50;1.00;;;;;;5021534;28;20038;-65
2021/05/10 13:10:36;;;;;;;0.70;0.30;;;19.60;1.00;;;;;;5019868;28;20789;-67
2021/05/10 13:13:38;;;;;;;0.10;0.10;;;19.00;1.00;;;;;;5010906;28;20042;-66
2021/05/10 13:16:39;;;;;;;0.73;0.20;;;18.50;1.00;;;;;;5018686;28;20042;-66
2021/05/10 13:31:55;;;;;;;2.10;0.32;;;18.60;1.00;;;;;;5017137;28;20060;-65
2021/05/10 13:37:59;;;;;;;0.57;0.22;;;18.50;1.00;;;;;;5024109;28;20598;-65
2021/05/10 13:40:48;;;;;;;1.27;0.32;;;18.60;1.00;;;;;;5025686;28;20049;-64
2021/05/10 13:43:42;;;;;;;2.70;0.70;;;18.70;1.00;;;;;;5014019;28;20046;-65
2021/05/10 13:46:30;;;;;;;0.93;0.77;;;18.90;1.00;;;;;;5023301;28;20056;-65
2021/05/10 13:49:19;;;;;;;1.00;0.35;;;18.90;1.00;;;;;;5020341;28;20128;-65
2021/05/10 13:52:06;;;;;;;2.08;0.50;;;18.60;1.00;;;;;;5022557;28;20049;-65
2021/05/10 13:54:54;;;;;;;0.40;0.38;;;18.60;1.00;;;;;;5018049;28;20551;-64
2021/05/10 13:57:41;;;;;;;0.70;0.40;;;18.10;1.00;;;;;;5023316;28;20045;-64
2021/05/10 14:00:29;;;;;;;2.05;0.60;;;18.10;1.00;;;;;;5020999;28;20096;-65
2021/05/10 14:03:16;;;;;;;1.85;0.43;;;18.10;1.00;;;;;;5019798;28;20076;-63
2021/05/10 14:06:04;;;;;;;1.58;0.50;;;18.00;1.00;;;;;;5024594;28;20132;-63
2021/05/10 14:08:51;;;;;;;0.82;0.52;;;17.90;1.00;;;;;;5022970;28;20179;-62
2021/05/10 14:11:40;;;;;;;4.28;0.60;;;18.00;1.00;;;;;;5019273;28;20080;-63
2021/05/10 14:14:27;;;;;;;2.45;0.50;;;17.80;1.00;;;;;;5017367;28;20049;-64
2021/05/10 14:17:14;;;;;;;0.93;0.30;;;18.00;1.00;;;;;;5020939;28;20041;-64
2021/05/10 14:20:04;;;;;;;1.52;0.50;;;18.10;1.00;;;;;;5021236;28;20157;-65
2021/05/10 14:22:51;;;;;;;2.70;0.50;;;18.20;1.00;;;;;;5012919;28;20046;-64
2021/05/10 14:25:38;;;;;;;2.75;0.80;;;18.30;1.00;;;;;;5022418;28;20095;-64
2021/05/10 14:28:26;;;;;;;4.07;0.50;;;18.30;1.00;;;;;;5020438;28;20818;-63
2021/05/10 14:31:14;;;;;;;1.17;0.60;;;18.10;1.00;;;;;;5022082;28;20060;-61
2021/05/10 14:34:02;;;;;;;3.20;0.38;;;18.20;1.00;;;;;;5009138;28;20049;-63
2021/05/10 14:36:51;;;;;;;1.05;0.63;;;18.00;1.00;;;;;;5017602;28;20119;-63
2021/05/10 14:39:41;;;;;;;1.50;0.60;;;18.30;1.00;;;;;;5027687;28;20196;-64
2021/05/10 14:42:29;;;;;;;0.60;0.50;;;18.40;1.00;;;;;;5015480;28;20072;-64
2021/05/10 14:45:17;;;;;;;1.58;0.55;;;18.10;1.00;;;;;;5020241;28;20348;-64
2021/05/10 14:48:05;;;;;;;2.25;0.43;;;18.10;1.00;;;;;;5021881;28;20173;-62
2021/05/10 14:50:53;;;;;;;0.77;0.50;;;17.90;1.00;;;;;;5019122;28;20192;-64
2021/05/10 14:53:46;;;;;;;0.57;0.40;;;17.80;1.00;;;;;;5015896;28;20580;-64
2021/05/10 14:56:35;;;;;;;2.45;0.40;;;17.80;1.00;;;;;;5019994;28;20053;-62
2021/05/10 14:59:23;;;;;;;0.63;0.50;;;17.80;1.00;;;;;;5021789;28;20049;-63
2021/05/10 15:02:10;;;;;;;1.15;0.40;;;17.60;1.00;;;;;;5016592;28;20128;-64
2021/05/10 15:04:58;;;;;;;2.05;0.40;;;17.70;1.00;;;;;;5015824;28;20060;-63
2021/05/10 15:07:45;;;;;;;0.20;0.20;;;17.80;1.00;;;;;;5022404;28;20041;-64
2021/05/10 15:10:37;;;;;;;1.13;0.30;;;17.50;1.00;;;;;;5021912;28;20072;-64
2021/05/10 15:20:01;;;;;;;3.55;0.90;;;17.50;1.00;;;;;;5012929;28;20249;-63
2021/05/10 15:22:50;;;;;;;1.63;0.38;;;17.50;1.00;;;;;;5026623;28;20123;-64
2021/05/10 15:25:37;;;;;;;5.35;0.40;;;17.70;1.00;;;;;;5023911;28;20045;-64
2021/05/10 15:28:24;;;;;;;1.77;0.40;;;18.00;1.00;;;;;;5023672;28;20465;-64
2021/05/10 15:31:12;;;;;;;0.73;0.50;;;17.80;1.00;;;;;;5025682;28;20034;-64
2021/05/10 15:33:59;;;;;;;1.02;0.47;;;17.70;1.00;;;;;;5024045;28;20058;-64
2021/05/10 15:36:47;;;;;;;1.27;0.40;;;17.60;1.00;;;;;;5026127;28;20053;-64
2021/05/10 15:39:34;;;;;;;0.80;0.30;;;17.50;1.00;;;;;;5027064;28;20131;-64